sensor_id;sensor_type;location;lat;lon;timestamp;pressure;altitude;pressure_sealevel;temperature;humidity
8059;BME280;4072;42.668;23.396;2023-05-09T00:00:07;95382.09;;;13.80;100.00
8059;BME280;4072;42.668;23.396;2023-05-09T00:02:37;95384.84;;;13.71;100.00
8059;BME280;4072;42.668;23.396;2023-05-09T00:05:06;95372.25;;;13.50;100.00
8059;BME280;4072;42.668;23.396;2023-05-09T00:07:35;95348.94;;;13.58;100.00
8059;BME280;4072;42.668;23.396;2023-05-09T00:10:04;95376.91;;;13.91;100.00
8059;BME280;4072;42.668;23.396;2023-05-09T00:12:33;95358.25;;;13.75;100.00
8059;BME280;4072;42.668;23.396;2023-05-09T00:15:02;95369.41;;;13.77;100.00
8059;BME280;4072;42.668;23.396;2023-05-09T00:17:31;95380.94;;;13.63;100.00
8059;BME280;4072;42.668;23.396;2023-05-09T00:20:03;95345.06;;;13.41;100.00
8059;BME280;4072;42.668;23.396;2023-05-09T00:22:34;95363.81;;;13.39;100.00
8059;BME280;4072;42.668;23.396;2023-05-09T00:25:04;95381.31;;;13.47;100.00
8059;BME280;4072;42.668;23.396;2023-05-09T00:27:32;95372.53;;;13.52;100.00
8059;BME280;4072;42.668;23.396;2023-05-09T00:30:00;95374.97;;;13.50;100.00
8059;BME280;4072;42.668;23.396;2023-05-09T00:32:31;95361.19;;;13.62;100.00
8059;BME280;4072;42.668;23.396;2023-05-09T00:34:59;95373.69;;;13.60;100.00
8059;BME280;4072;42.668;23.396;2023-05-09T00:37:28;95373.00;;;13.41;100.00
8059;BME280;4072;42.668;23.396;2023-05-09T00:39:56;95367.31;;;13.21;100.00
8059;BME280;4072;42.668;23.396;2023-05-09T00:42:25;95379.84;;;13.10;100.00
8059;BME280;4072;42.668;23.396;2023-05-09T00:44:53;95370.06;;;13.03;100.00
8059;BME280;4072;42.668;23.396;2023-05-09T00:47:22;95329.03;;;12.65;100.00
8059;BME280;4072;42.668;23.396;2023-05-09T00:49:52;95368.38;;;12.88;100.00
8059;BME280;4072;42.668;23.396;2023-05-09T00:52:20;95377.88;;;12.83;100.00
8059;BME280;4072;42.668;23.396;2023-05-09T00:54:51;95314.56;;;12.41;100.00
8059;BME280;4072;42.668;23.396;2023-05-09T00:57:20;95386.47;;;12.82;100.00
8059;BME280;4072;42.668;23.396;2023-05-09T00:59:49;95340.34;;;12.55;100.00
8059;BME280;4072;42.668;23.396;2023-05-09T01:02:17;95359.03;;;12.71;100.00
8059;BME280;4072;42.668;23.396;2023-05-09T01:04:46;95382.56;;;12.92;100.00
8059;BME280;4072;42.668;23.396;2023-05-09T01:07:21;95369.00;;;12.83;100.00
8059;BME280;4072;42.668;23.396;2023-05-09T01:09:56;95382.09;;;12.93;100.00
8059;BME280;4072;42.668;23.396;2023-05-09T01:12:34;95374.41;;;12.92;100.00
8059;BME280;4072;42.668;23.396;2023-05-09T01:15:09;95375.91;;;12.93;100.00
8059;BME280;4072;42.668;23.396;2023-05-09T01:17:47;95368.38;;;12.88;100.00
8059;BME280;4072;42.668;23.396;2023-05-09T01:20:20;95352.72;;;12.83;100.00
8059;BME280;4072;42.668;23.396;2023-05-09T01:23:00;95361.44;;;12.96;100.00
8059;BME280;4072;42.668;23.396;2023-05-09T01:25:43;95371.56;;;13.13;100.00
8059;BME280;4072;42.668;23.396;2023-05-09T01:28:31;95374.72;;;13.12;100.00
8059;BME280;4072;42.668;23.396;2023-05-09T01:31:03;95369.16;;;13.06;100.00
8059;BME280;4072;42.668;23.396;2023-05-09T01:33:38;95364.78;;;13.09;100.00
8059;BME280;4072;42.668;23.396;2023-05-09T01:36:11;95368.09;;;13.13;100.00
8059;BME280;4072;42.668;23.396;2023-05-09T01:38:42;95364.91;;;13.14;100.00
8059;BME280;4072;42.668;23.396;2023-05-09T01:41:13;95372.00;;;13.12;100.00
8059;BME280;4072;42.668;23.396;2023-05-09T01:43:45;95364.16;;;13.23;100.00
8059;BME280;4072;42.668;23.396;2023-05-09T01:46:18;95373.19;;;13.20;100.00
8059;BME280;4072;42.668;23.396;2023-05-09T01:48:49;95360.84;;;13.19;100.00
8059;BME280;4072;42.668;23.396;2023-05-09T01:51:18;95377.09;;;13.28;100.00
8059;BME280;4072;42.668;23.396;2023-05-09T01:53:48;95365.06;;;13.20;100.00
8059;BME280;4072;42.668;23.396;2023-05-09T01:56:19;95366.88;;;13.14;100.00
8059;BME280;4072;42.668;23.396;2023-05-09T01:58:52;95374.41;;;13.19;100.00
8059;BME280;4072;42.668;23.396;2023-05-09T02:01:25;95373.19;;;13.20;100.00
8059;BME280;4072;42.668;23.396;2023-05-09T02:03:55;95359.50;;;13.05;100.00
8059;BME280;4072;42.668;23.396;2023-05-09T02:06:25;95380.16;;;13.03;100.00
8059;BME280;4072;42.668;23.396;2023-05-09T02:08:55;95378.34;;;13.09;100.00
8059;BME280;4072;42.668;23.396;2023-05-09T02:11:24;95376.50;;;13.24;100.00
8059;BME280;4072;42.668;23.396;2023-05-09T02:13:53;95380.91;;;13.30;100.00
8059;BME280;4072;42.668;23.396;2023-05-09T02:16:21;95384.94;;;13.35;100.00
8059;BME280;4072;42.668;23.396;2023-05-09T02:18:51;95380.28;;;13.35;100.00
8059;BME280;4072;42.668;23.396;2023-05-09T02:21:19;95375.94;;;13.11;100.00
8059;BME280;4072;42.668;23.396;2023-05-09T02:23:49;95370.34;;;12.96;100.00
8059;BME280;4072;42.668;23.396;2023-05-09T02:26:21;95352.09;;;12.88;100.00
8059;BME280;4072;42.668;23.396;2023-05-09T02:28:49;95378.34;;;13.09;100.00
8059;BME280;4072;42.668;23.396;2023-05-09T02:31:19;95376.53;;;13.06;100.00
8059;BME280;4072;42.668;23.396;2023-05-09T02:33:51;95326.16;;;12.78;100.00
8059;BME280;4072;42.668;23.396;2023-05-09T02:36:21;95385.88;;;13.14;100.00
8059;BME280;4072;42.668;23.396;2023-05-09T02:38:53;95382.09;;;13.29;100.00
8059;BME280;4072;42.668;23.396;2023-05-09T02:41:21;95374.41;;;13.19;100.00
8059;BME280;4072;42.668;23.396;2023-05-09T02:43:49;95372.47;;;13.10;100.00
8059;BME280;4072;42.668;23.396;2023-05-09T02:46:17;95370.81;;;13.04;100.00
8059;BME280;4072;42.668;23.396;2023-05-09T02:48:46;95375.00;;;13.14;100.00
8059;BME280;4072;42.668;23.396;2023-05-09T02:51:16;95374.88;;;13.08;100.00
8059;BME280;4072;42.668;23.396;2023-05-09T02:53:44;95375.31;;;12.98;100.00
8059;BME280;4072;42.668;23.396;2023-05-09T02:56:12;95377.28;;;12.97;100.00
8059;BME280;4072;42.668;23.396;2023-05-09T02:58:41;95378.78;;;12.89;100.00
8059;BME280;4072;42.668;23.396;2023-05-09T03:01:09;95381.50;;;12.89;100.00
8059;BME280;4072;42.668;23.396;2023-05-09T03:03:38;95389.97;;;12.82;100.00
8059;BME280;4072;42.668;23.396;2023-05-09T03:06:06;95387.09;;;12.77;100.00
8059;BME280;4072;42.668;23.396;2023-05-09T03:08:36;95397.81;;;12.71;100.00
8059;BME280;4072;42.668;23.396;2023-05-09T03:11:04;95401.25;;;12.63;100.00
8059;BME280;4072;42.668;23.396;2023-05-09T03:13:32;95393.09;;;12.54;100.00
8059;BME280;4072;42.668;23.396;2023-05-09T03:16:01;95405.31;;;12.49;100.00
8059;BME280;4072;42.668;23.396;2023-05-09T03:18:30;95400.03;;;12.37;100.00
8059;BME280;4072;42.668;23.396;2023-05-09T03:20:58;95415.66;;;12.33;100.00
8059;BME280;4072;42.668;23.396;2023-05-09T03:23:26;95431.22;;;12.32;100.00
8059;BME280;4072;42.668;23.396;2023-05-09T03:25:56;95425.31;;;12.25;100.00
8059;BME280;4072;42.668;23.396;2023-05-09T03:28:24;95434.66;;;12.24;100.00
8059;BME280;4072;42.668;23.396;2023-05-09T03:30:52;95447.16;;;12.21;100.00
8059;BME280;4072;42.668;23.396;2023-05-09T03:33:20;95419.81;;;12.07;100.00
8059;BME280;4072;42.668;23.396;2023-05-09T03:35:49;95374.56;;;11.76;100.00
8059;BME280;4072;42.668;23.396;2023-05-09T03:38:17;95439.47;;;12.20;100.00
8059;BME280;4072;42.668;23.396;2023-05-09T03:40:45;95442.91;;;12.11;100.00
8059;BME280;4072;42.668;23.396;2023-05-09T03:43:15;95441.41;;;12.10;100.00
8059;BME280;4072;42.668;23.396;2023-05-09T03:45:44;95441.84;;;12.18;100.00
8059;BME280;4072;42.668;23.396;2023-05-09T03:48:12;95447.88;;;12.13;100.00
8059;BME280;4072;42.668;23.396;2023-05-09T03:50:40;95438.69;;;12.10;100.00
8059;BME280;4072;42.668;23.396;2023-05-09T03:53:09;95429.19;;;12.15;100.00
8059;BME280;4072;42.668;23.396;2023-05-09T03:55:38;95439.28;;;12.14;100.00
8059;BME280;4072;42.668;23.396;2023-05-09T03:58:06;95450.31;;;12.20;100.00
8059;BME280;4072;42.668;23.396;2023-05-09T04:00:36;95446.72;;;12.23;100.00
8059;BME280;4072;42.668;23.396;2023-05-09T04:03:04;95439.59;;;12.16;100.00
8059;BME280;4072;42.668;23.396;2023-05-09T04:05:33;95443.06;;;12.17;100.00
8059;BME280;4072;42.668;23.396;2023-05-09T04:08:02;95435.59;;;12.39;100.00
8059;BME280;4072;42.668;23.396;2023-05-09T04:10:30;95432.91;;;12.48;100.00
8059;BME280;4072;42.668;23.396;2023-05-09T04:12:58;95438.03;;;12.55;100.00
8059;BME280;4072;42.668;23.396;2023-05-09T04:15:27;95442.28;;;12.65;100.00
8059;BME280;4072;42.668;23.396;2023-05-09T04:17:56;95444.22;;;12.64;100.00
8059;BME280;4072;42.668;23.396;2023-05-09T04:20:25;95440.19;;;12.69;100.00
8059;BME280;4072;42.668;23.396;2023-05-09T04:22:53;95433.50;;;12.52;100.00
8059;BME280;4072;42.668;23.396;2023-05-09T04:25:22;95442.25;;;12.56;100.00
8059;BME280;4072;42.668;23.396;2023-05-09T04:27:50;95439.69;;;12.52;100.00
8059;BME280;4072;42.668;23.396;2023-05-09T04:30:19;95438.34;;;12.66;100.00
8059;BME280;4072;42.668;23.396;2023-05-09T04:32:48;95450.72;;;12.85;100.00
8059;BME280;4072;42.668;23.396;2023-05-09T04:35:18;95442.75;;;12.90;100.00
8059;BME280;4072;42.668;23.396;2023-05-09T04:37:47;95444.09;;;12.95;100.00
8059;BME280;4072;42.668;23.396;2023-05-09T04:40:16;95441.13;;;13.11;100.00
8059;BME280;4072;42.668;23.396;2023-05-09T04:42:46;95442.59;;;13.48;100.00
8059;BME280;4072;42.668;23.396;2023-05-09T04:45:14;95399.59;;;13.19;100.00
8059;BME280;4072;42.668;23.396;2023-05-09T04:47:42;95426.72;;;13.55;100.00
8059;BME280;4072;42.668;23.396;2023-05-09T04:50:12;95423.97;;;13.64;100.00
8059;BME280;4072;42.668;23.396;2023-05-09T04:52:41;95445.25;;;13.75;100.00
8059;BME280;4072;42.668;23.396;2023-05-09T04:55:10;95434.00;;;13.49;100.00
8059;BME280;4072;42.668;23.396;2023-05-09T04:57:38;95425.13;;;13.22;100.00
8059;BME280;4072;42.668;23.396;2023-05-09T05:00:08;95424.53;;;13.18;100.00
8059;BME280;4072;42.668;23.396;2023-05-09T05:02:37;95440.34;;;13.28;100.00
8059;BME280;4072;42.668;23.396;2023-05-09T05:05:08;95443.53;;;13.27;100.00
8059;BME280;4072;42.668;23.396;2023-05-09T05:07:51;95447.59;;;13.22;100.00
8059;BME280;4072;42.668;23.396;2023-05-09T05:10:21;95443.53;;;13.27;100.00
8059;BME280;4072;42.668;23.396;2023-05-09T05:12:49;95414.56;;;12.97;100.00
8059;BME280;4072;42.668;23.396;2023-05-09T05:15:17;95441.72;;;13.15;100.00
8059;BME280;4072;42.668;23.396;2023-05-09T05:17:46;95445.94;;;13.07;100.00
8059;BME280;4072;42.668;23.396;2023-05-09T05:20:15;95446.25;;;13.00;100.00
8059;BME280;4072;42.668;23.396;2023-05-09T05:22:43;95428.72;;;12.83;100.00
8059;BME280;4072;42.668;23.396;2023-05-09T05:25:13;95438.97;;;12.88;100.00
8059;BME280;4072;42.668;23.396;2023-05-09T05:27:43;95440.78;;;12.91;100.00
8059;BME280;4072;42.668;23.396;2023-05-09T05:30:12;95444.09;;;12.95;100.00
8059;BME280;4072;42.668;23.396;2023-05-09T05:32:41;95427.41;;;13.05;100.00
8059;BME280;4072;42.668;23.396;2023-05-09T05:35:10;95435.22;;;13.21;100.00
8059;BME280;4072;42.668;23.396;2023-05-09T05:37:42;95434.59;;;13.26;100.00
8059;BME280;4072;42.668;23.396;2023-05-09T05:40:16;95454.25;;;13.21;100.00
8059;BME280;4072;42.668;23.396;2023-05-09T05:42:45;95428.44;;;13.26;100.00
8059;BME280;4072;42.668;23.396;2023-05-09T05:45:16;95406.41;;;13.06;100.00
8059;BME280;4072;42.668;23.396;2023-05-09T05:47:45;95396.16;;;13.19;100.00
8059;BME280;4072;42.668;23.396;2023-05-09T05:50:14;95428.69;;;13.55;100.00
8059;BME280;4072;42.668;23.396;2023-05-09T05:52:42;95440.59;;;13.57;100.00
8059;BME280;4072;42.668;23.396;2023-05-09T05:55:10;95442.50;;;13.84;100.00
8059;BME280;4072;42.668;23.396;2023-05-09T05:57:40;95438.25;;;13.92;100.00
8059;BME280;4072;42.668;23.396;2023-05-09T06:00:09;95446.56;;;13.97;100.00
8059;BME280;4072;42.668;23.396;2023-05-09T06:02:38;95445.94;;;13.93;100.00
8059;BME280;4072;42.668;23.396;2023-05-09T06:05:08;95411.41;;;13.85;100.00
8059;BME280;4072;42.668;23.396;2023-05-09T06:07:37;95442.53;;;14.16;100.00
8059;BME280;4072;42.668;23.396;2023-05-09T06:10:07;95428.97;;;14.07;100.00
8059;BME280;4072;42.668;23.396;2023-05-09T06:12:35;95425.78;;;14.09;100.00
8059;BME280;4072;42.668;23.396;2023-05-09T06:15:06;95443.34;;;13.99;100.00
8059;BME280;4072;42.668;23.396;2023-05-09T06:17:34;95447.94;;;13.84;100.00
8059;BME280;4072;42.668;23.396;2023-05-09T06:20:04;95434.94;;;13.88;100.00
8059;BME280;4072;42.668;23.396;2023-05-09T06:22:33;95441.25;;;14.03;100.00
8059;BME280;4072;42.668;23.396;2023-05-09T06:25:01;95441.53;;;14.05;100.00
8059;BME280;4072;42.668;23.396;2023-05-09T06:27:30;95412.56;;;13.93;100.00
8059;BME280;4072;42.668;23.396;2023-05-09T06:29:58;95435.88;;;14.26;100.00
8059;BME280;4072;42.668;23.396;2023-05-09T06:32:35;95437.88;;;14.17;100.00
8059;BME280;4072;42.668;23.396;2023-05-09T06:35:04;95398.84;;;13.87;100.00
8059;BME280;4072;42.668;23.396;2023-05-09T06:37:33;95443.56;;;14.19;100.00
8059;BME280;4072;42.668;23.396;2023-05-09T06:40:03;95448.25;;;14.27;100.00
8059;BME280;4072;42.668;23.396;2023-05-09T06:42:31;95431.81;;;14.13;100.00
8059;BME280;4072;42.668;23.396;2023-05-09T06:45:00;95435.47;;;14.10;100.00
8059;BME280;4072;42.668;23.396;2023-05-09T06:47:28;95435.59;;;14.15;100.00
8059;BME280;4072;42.668;23.396;2023-05-09T06:49:58;95430.50;;;13.99;100.00
8059;BME280;4072;42.668;23.396;2023-05-09T06:52:28;95444.28;;;13.96;100.00
8059;BME280;4072;42.668;23.396;2023-05-09T06:54:56;95438.06;;;14.04;100.00
8059;BME280;4072;42.668;23.396;2023-05-09T06:57:24;95439.81;;;14.16;100.00
8059;BME280;4072;42.668;23.396;2023-05-09T06:59:53;95438.19;;;14.42;100.00
8059;BME280;4072;42.668;23.396;2023-05-09T07:02:21;95431.69;;;14.49;100.00
8059;BME280;4072;42.668;23.396;2023-05-09T07:04:51;95443.03;;;14.71;100.00
8059;BME280;4072;42.668;23.396;2023-05-09T07:07:22;95432.72;;;14.75;100.00
8059;BME280;4072;42.668;23.396;2023-05-09T07:09:50;95416.84;;;14.50;100.00
8059;BME280;4072;42.668;23.396;2023-05-09T07:12:33;95395.97;;;14.47;100.00
8059;BME280;4072;42.668;23.396;2023-05-09T07:15:01;95391.34;;;14.62;100.00
8059;BME280;4072;42.668;23.396;2023-05-09T07:17:29;95427.56;;;15.15;100.00
8059;BME280;4072;42.668;23.396;2023-05-09T07:19:57;95423.03;;;15.12;100.00
8059;BME280;4072;42.668;23.396;2023-05-09T07:22:27;95424.25;;;14.97;100.00
8059;BME280;4072;42.668;23.396;2023-05-09T07:24:58;95432.78;;;14.90;100.00
8059;BME280;4072;42.668;23.396;2023-05-09T07:27:26;95430.03;;;14.66;100.00
8059;BME280;4072;42.668;23.396;2023-05-09T07:29:59;95433.81;;;14.68;100.00
8059;BME280;4072;42.668;23.396;2023-05-09T07:32:28;95428.50;;;14.74;100.00
8059;BME280;4072;42.668;23.396;2023-05-09T07:34:57;95426.25;;;14.87;100.00
8059;BME280;4072;42.668;23.396;2023-05-09T07:37:27;95440.69;;;15.02;100.00
8059;BME280;4072;42.668;23.396;2023-05-09T07:39:55;95383.59;;;14.46;100.00
8059;BME280;4072;42.668;23.396;2023-05-09T07:42:26;95437.59;;;14.71;100.00
8059;BME280;4072;42.668;23.396;2023-05-09T07:44:56;95389.38;;;14.39;100.00
8059;BME280;4072;42.668;23.396;2023-05-09T07:47:24;95444.66;;;14.54;100.00
8059;BME280;4072;42.668;23.396;2023-05-09T07:49:52;95428.06;;;14.43;100.00
8059;BME280;4072;42.668;23.396;2023-05-09T07:52:21;95445.31;;;14.87;100.00
8059;BME280;4072;42.668;23.396;2023-05-09T07:54:50;95434.44;;;14.87;100.00
8059;BME280;4072;42.668;23.396;2023-05-09T07:57:20;95439.78;;;14.58;100.00
8059;BME280;4072;42.668;23.396;2023-05-09T07:59:50;95417.94;;;14.43;100.00
8059;BME280;4072;42.668;23.396;2023-05-09T08:02:19;95431.47;;;14.76;100.00
8059;BME280;4072;42.668;23.396;2023-05-09T08:04:48;95444.38;;;14.76;100.00
8059;BME280;4072;42.668;23.396;2023-05-09T08:07:17;95430.78;;;14.66;100.00
8059;BME280;4072;42.668;23.396;2023-05-09T08:09:46;95425.81;;;14.65;100.00
8059;BME280;4072;42.668;23.396;2023-05-09T08:12:15;95440.06;;;14.84;100.00
8059;BME280;4072;42.668;23.396;2023-05-09T08:14:44;95429.28;;;14.89;100.00
8059;BME280;4072;42.668;23.396;2023-05-09T08:17:12;95422.25;;;14.97;100.00
8059;BME280;4072;42.668;23.396;2023-05-09T08:19:43;95437.16;;;15.25;100.00
8059;BME280;4072;42.668;23.396;2023-05-09T08:22:17;95440.91;;;15.28;100.00
8059;BME280;4072;42.668;23.396;2023-05-09T08:24:46;95433.66;;;15.48;100.00
8059;BME280;4072;42.668;23.396;2023-05-09T08:27:16;95451.81;;;15.28;100.00
8059;BME280;4072;42.668;23.396;2023-05-09T08:29:44;95427.44;;;15.48;100.00
8059;BME280;4072;42.668;23.396;2023-05-09T08:32:13;95445.34;;;15.78;100.00
8059;BME280;4072;42.668;23.396;2023-05-09T08:34:41;95428.06;;;16.15;100.00
8059;BME280;4072;42.668;23.396;2023-05-09T08:37:12;95436.94;;;15.81;100.00
8059;BME280;4072;42.668;23.396;2023-05-09T08:39:41;95363.06;;;15.36;100.00
8059;BME280;4072;42.668;23.396;2023-05-09T08:42:09;95429.44;;;15.76;100.00
8059;BME280;4072;42.668;23.396;2023-05-09T08:44:39;95427.41;;;16.06;100.00
8059;BME280;4072;42.668;23.396;2023-05-09T08:47:07;95424.22;;;16.07;100.00
8059;BME280;4072;42.668;23.396;2023-05-09T08:49:36;95416.06;;;15.78;100.00
8059;BME280;4072;42.668;23.396;2023-05-09T08:52:06;95419.34;;;15.82;100.00
8059;BME280;4072;42.668;23.396;2023-05-09T08:54:34;95424.81;;;15.82;100.00
8059;BME280;4072;42.668;23.396;2023-05-09T08:57:04;95425.66;;;16.37;100.00
8059;BME280;4072;42.668;23.396;2023-05-09T08:59:34;95426.81;;;16.85;100.00
8059;BME280;4072;42.668;23.396;2023-05-09T09:02:06;95425.91;;;16.19;100.00
8059;BME280;4072;42.668;23.396;2023-05-09T09:04:39;95425.56;;;15.97;100.00
8059;BME280;4072;42.668;23.396;2023-05-09T09:07:08;95425.47;;;15.77;100.00
8059;BME280;4072;42.668;23.396;2023-05-09T09:09:43;95430.00;;;15.80;100.00
8059;BME280;4072;42.668;23.396;2023-05-09T09:12:14;95418.97;;;15.89;100.00
8059;BME280;4072;42.668;23.396;2023-05-09T09:14:46;95374.56;;;15.31;100.00
8059;BME280;4072;42.668;23.396;2023-05-09T09:17:18;95425.94;;;15.61;100.00
8059;BME280;4072;42.668;23.396;2023-05-09T09:19:48;95418.78;;;15.78;100.00
8059;BME280;4072;42.668;23.396;2023-05-09T09:22:19;95429.88;;;15.89;100.00
8059;BME280;4072;42.668;23.396;2023-05-09T09:24:49;95409.59;;;15.76;100.00
8059;BME280;4072;42.668;23.396;2023-05-09T09:27:17;95433.66;;;15.92;100.00
8059;BME280;4072;42.668;23.396;2023-05-09T09:29:48;95419.88;;;15.28;100.00
8059;BME280;4072;42.668;23.396;2023-05-09T09:32:18;95435.88;;;15.35;100.00
8059;BME280;4072;42.668;23.396;2023-05-09T09:34:48;95442.91;;;15.27;100.00
8059;BME280;4072;42.668;23.396;2023-05-09T09:37:22;95447.91;;;15.29;100.00
8059;BME280;4072;42.668;23.396;2023-05-09T09:39:53;95430.97;;;15.25;100.00
8059;BME280;4072;42.668;23.396;2023-05-09T09:42:22;95438.44;;;15.15;100.00
8059;BME280;4072;42.668;23.396;2023-05-09T09:44:55;95417.97;;;15.05;100.00
8059;BME280;4072;42.668;23.396;2023-05-09T09:47:31;95435.44;;;14.75;100.00
8059;BME280;4072;42.668;23.396;2023-05-09T09:50:08;95434.22;;;14.76;100.00
8059;BME280;4072;42.668;23.396;2023-05-09T09:52:42;95434.44;;;14.87;100.00
8059;BME280;4072;42.668;23.396;2023-05-09T09:55:11;95435.63;;;15.10;100.00
8059;BME280;4072;42.668;23.396;2023-05-09T09:57:42;95437.44;;;14.89;100.00
8059;BME280;4072;42.668;23.396;2023-05-09T10:00:15;95422.81;;;15.01;100.00
8059;BME280;4072;42.668;23.396;2023-05-09T10:02:50;95432.53;;;15.02;100.00
8059;BME280;4072;42.668;23.396;2023-05-09T10:05:19;95438.44;;;15.39;100.00
8059;BME280;4072;42.668;23.396;2023-05-09T10:07:53;95434.72;;;15.27;100.00
8059;BME280;4072;42.668;23.396;2023-05-09T10:10:25;95401.09;;;15.30;100.00
8059;BME280;4072;42.668;23.396;2023-05-09T10:12:55;95402.81;;;15.42;100.00
8059;BME280;4072;42.668;23.396;2023-05-09T10:15:24;95390.06;;;15.10;100.00
8059;BME280;4072;42.668;23.396;2023-05-09T10:18:00;95426.06;;;15.14;100.00
8059;BME280;4072;42.668;23.396;2023-05-09T10:20:30;95421.97;;;14.95;100.00
8059;BME280;4072;42.668;23.396;2023-05-09T10:23:01;95426.72;;;15.24;100.00
8059;BME280;4072;42.668;23.396;2023-05-09T10:25:37;95403.03;;;15.15;100.00
8059;BME280;4072;42.668;23.396;2023-05-09T10:28:10;95427.03;;;15.26;100.00
8059;BME280;4072;42.668;23.396;2023-05-09T10:30:47;95425.19;;;15.46;100.00
8059;BME280;4072;42.668;23.396;2023-05-09T10:33:25;95405.28;;;15.69;100.00
8059;BME280;4072;42.668;23.396;2023-05-09T10:35:57;95411.66;;;15.37;100.00
8059;BME280;4072;42.668;23.396;2023-05-09T10:38:29;95410.69;;;15.40;100.00
8059;BME280;4072;42.668;23.396;2023-05-09T10:40:58;95419.38;;;15.53;100.00
8059;BME280;4072;42.668;23.396;2023-05-09T10:43:27;95399.09;;;15.16;100.00
8059;BME280;4072;42.668;23.396;2023-05-09T10:45:58;95384.41;;;15.37;100.00
8059;BME280;4072;42.668;23.396;2023-05-09T10:48:27;95422.56;;;15.81;100.00
8059;BME280;4072;42.668;23.396;2023-05-09T10:50:56;95418.34;;;15.65;100.00
8059;BME280;4072;42.668;23.396;2023-05-09T10:53:39;95417.38;;;15.68;100.00
8059;BME280;4072;42.668;23.396;2023-05-09T10:56:08;95429.56;;;15.29;100.00
8059;BME280;4072;42.668;23.396;2023-05-09T10:58:36;95422.56;;;15.37;100.00
8059;BME280;4072;42.668;23.396;2023-05-09T11:01:06;95435.56;;;15.57;100.00
8059;BME280;4072;42.668;23.396;2023-05-09T11:03:56;95425.91;;;15.32;100.00
8059;BME280;4072;42.668;23.396;2023-05-09T11:06:47;95421.38;;;15.15;100.00
8059;BME280;4072;42.668;23.396;2023-05-09T11:09:28;95410.94;;;14.75;100.00
8059;BME280;4072;42.668;23.396;2023-05-09T11:12:06;95419.78;;;14.85;100.00
8059;BME280;4072;42.668;23.396;2023-05-09T11:14:40;95434.69;;;14.98;100.00
8059;BME280;4072;42.668;23.396;2023-05-09T11:17:10;95433.50;;;14.90;100.00
8059;BME280;4072;42.668;23.396;2023-05-09T11:20:00;95414.03;;;15.06;100.00
8059;BME280;4072;42.668;23.396;2023-05-09T11:22:37;95423.31;;;14.76;100.00
8059;BME280;4072;42.668;23.396;2023-05-09T11:25:08;95426.16;;;14.58;100.00
8059;BME280;4072;42.668;23.396;2023-05-09T11:27:41;95424.81;;;14.53;100.00
8059;BME280;4072;42.668;23.396;2023-05-09T11:30:11;95385.53;;;14.69;100.00
8059;BME280;4072;42.668;23.396;2023-05-09T11:32:43;95410.44;;;15.00;100.00
8059;BME280;4072;42.668;23.396;2023-05-09T11:35:14;95436.75;;;15.03;100.00
8059;BME280;4072;42.668;23.396;2023-05-09T11:37:45;95398.72;;;14.47;100.00
8059;BME280;4072;42.668;23.396;2023-05-09T11:40:16;95431.78;;;14.78;100.00
8059;BME280;4072;42.668;23.396;2023-05-09T11:42:46;95435.00;;;14.44;100.00
8059;BME280;4072;42.668;23.396;2023-05-09T11:45:16;95431.28;;;14.32;100.00
8059;BME280;4072;42.668;23.396;2023-05-09T11:47:45;95426.84;;;14.44;100.00
8059;BME280;4072;42.668;23.396;2023-05-09T11:50:17;95426.56;;;14.42;100.00
8059;BME280;4072;42.668;23.396;2023-05-09T11:52:46;95434.09;;;14.70;100.00
8059;BME280;4072;42.668;23.396;2023-05-09T11:55:17;95414.22;;;14.32;100.00
8059;BME280;4072;42.668;23.396;2023-05-09T11:57:49;95393.91;;;14.09;100.00
8059;BME280;4072;42.668;23.396;2023-05-09T12:00:21;95430.56;;;14.55;100.00
8059;BME280;4072;42.668;23.396;2023-05-09T12:02:52;95427.25;;;14.28;100.00
8059;BME280;4072;42.668;23.396;2023-05-09T12:05:22;95417.69;;;14.00;100.00
8059;BME280;4072;42.668;23.396;2023-05-09T12:07:50;95424.22;;;14.26;100.00
8059;BME280;4072;42.668;23.396;2023-05-09T12:10:20;95433.00;;;14.21;100.00
8059;BME280;4072;42.668;23.396;2023-05-09T12:12:50;95420.56;;;14.38;100.00
8059;BME280;4072;42.668;23.396;2023-05-09T12:15:21;95418.09;;;14.40;100.00
8059;BME280;4072;42.668;23.396;2023-05-09T12:18:00;95422.28;;;14.50;100.00
8059;BME280;4072;42.668;23.396;2023-05-09T12:20:40;95406.69;;;14.27;100.00
8059;BME280;4072;42.668;23.396;2023-05-09T12:23:11;95412.09;;;14.36;100.00
8059;BME280;4072;42.668;23.396;2023-05-09T12:25:46;95423.38;;;14.11;100.00
8059;BME280;4072;42.668;23.396;2023-05-09T12:28:16;95367.94;;;13.67;100.00
8059;BME280;4072;42.668;23.396;2023-05-09T12:30:45;95426.19;;;13.84;100.00
8059;BME280;4072;42.668;23.396;2023-05-09T12:33:14;95429.53;;;13.79;100.00
8059;BME280;4072;42.668;23.396;2023-05-09T12:35:45;95421.44;;;13.52;100.00
8059;BME280;4072;42.668;23.396;2023-05-09T12:38:19;95430.81;;;13.42;100.00
8059;BME280;4072;42.668;23.396;2023-05-09T12:40:59;95382.88;;;13.03;100.00
8059;BME280;4072;42.668;23.396;2023-05-09T12:43:30;95423.63;;;13.03;100.00
8059;BME280;4072;42.668;23.396;2023-05-09T12:46:01;95427.06;;;13.12;100.00
8059;BME280;4072;42.668;23.396;2023-05-09T12:48:36;95410.47;;;13.19;100.00
8059;BME280;4072;42.668;23.396;2023-05-09T12:51:06;95425.41;;;13.24;100.00
8059;BME280;4072;42.668;23.396;2023-05-09T12:53:37;95425.72;;;12.99;100.00
8059;BME280;4072;42.668;23.396;2023-05-09T12:56:11;95398.88;;;12.83;100.00
8059;BME280;4072;42.668;23.396;2023-05-09T12:58:48;95413.78;;;12.69;100.00
8059;BME280;4072;42.668;23.396;2023-05-09T13:01:16;95416.69;;;13.02;100.00
8059;BME280;4072;42.668;23.396;2023-05-09T13:03:50;95407.88;;;12.71;100.00
8059;BME280;4072;42.668;23.396;2023-05-09T13:06:20;95428.41;;;12.63;100.00
8059;BME280;4072;42.668;23.396;2023-05-09T13:08:56;95419.03;;;12.55;100.00
8059;BME280;4072;42.668;23.396;2023-05-09T13:11:28;95417.34;;;12.48;100.00
8059;BME280;4072;42.668;23.396;2023-05-09T13:13:56;95414.19;;;12.50;100.00
8059;BME280;4072;42.668;23.396;2023-05-09T13:16:25;95414.81;;;12.54;100.00